sensor_id;sensor_type;location;lat;lon;timestamp;P1;durP1;ratioP1;P2;durP2;ratioP2
35877;SDS011;21982;49.804;24.072;2022-11-25T08:53:22;35.77;;;15.73;;
35877;SDS011;21982;49.804;24.072;2022-11-25T08:55:48;38.27;;;17.23;;
35877;SDS011;21982;49.804;24.072;2022-11-25T08:58:13;37.63;;;17.03;;
35877;SDS011;21982;49.804;24.072;2022-11-25T09:00:39;32.17;;;16.33;;
35877;SDS011;21982;49.804;24.072;2022-11-25T09:03:06;36.53;;;17.88;;
35877;SDS011;21982;49.804;24.072;2022-11-25T09:05:32;39.40;;;18.07;;
35877;SDS011;21982;49.804;24.072;2022-11-25T09:08:04;41.80;;;17.77;;
35877;SDS011;21982;49.804;24.072;2022-11-25T09:10:31;35.50;;;17.55;;
35877;SDS011;21982;49.804;24.072;2022-11-25T09:12:57;34.78;;;18.42;;
35877;SDS011;21982;49.804;24.072;2022-11-25T09:15:22;43.92;;;19.50;;
35877;SDS011;21982;49.804;24.072;2022-11-25T09:17:48;38.70;;;19.45;;
35877;SDS011;21982;49.804;24.072;2022-11-25T09:20:13;41.58;;;19.58;;
35877;SDS011;21982;49.804;24.072;2022-11-25T09:25:18;38.22;;;20.20;;
35877;SDS011;21982;49.804;24.072;2022-11-25T09:27:45;42.40;;;20.42;;
35877;SDS011;21982;49.804;24.072;2022-11-25T09:30:10;38.22;;;20.75;;
35877;SDS011;21982;49.804;24.072;2022-11-25T09:32:37;43.35;;;21.23;;
35877;SDS011;21982;49.804;24.072;2022-11-25T09:35:02;43.40;;;19.40;;
35877;SDS011;21982;49.804;24.072;2022-11-25T09:37:28;45.42;;;21.58;;
35877;SDS011;21982;49.804;24.072;2022-11-25T09:39:54;42.97;;;22.00;;
35877;SDS011;21982;49.804;24.072;2022-11-25T09:45:37;41.58;;;22.13;;
35877;SDS011;21982;49.804;24.072;2022-11-25T09:48:39;43.47;;;21.98;;
35877;SDS011;21982;49.804;24.072;2022-11-25T09:53:43;41.08;;;20.50;;
35877;SDS011;21982;49.804;24.072;2022-11-25T09:56:55;45.38;;;24.60;;
35877;SDS011;21982;49.804;24.072;2022-11-25T10:01:54;40.33;;;20.08;;
35877;SDS011;21982;49.804;24.072;2022-11-25T10:07:37;46.03;;;20.98;;
35877;SDS011;21982;49.804;24.072;2022-11-25T10:12:42;43.05;;;21.88;;
35877;SDS011;21982;49.804;24.072;2022-11-25T10:15:20;46.60;;;22.17;;
35877;SDS011;21982;49.804;24.072;2022-11-25T10:17:51;40.17;;;21.20;;
35877;SDS011;21982;49.804;24.072;2022-11-25T10:20:22;38.50;;;21.42;;
35877;SDS011;21982;49.804;24.072;2022-11-25T10:23:00;41.72;;;21.73;;
35877;SDS011;21982;49.804;24.072;2022-11-25T11:01:20;39.20;;;21.00;;
35877;SDS011;21982;49.804;24.072;2022-11-25T11:03:51;42.08;;;21.80;;
35877;SDS011;21982;49.804;24.072;2022-11-25T11:08:53;43.28;;;20.67;;
35877;SDS011;21982;49.804;24.072;2022-11-25T11:11:19;39.10;;;19.52;;
35877;SDS011;21982;49.804;24.072;2022-11-25T11:13:47;42.83;;;20.98;;
35877;SDS011;21982;49.804;24.072;2022-11-25T11:18:54;44.63;;;22.83;;
35877;SDS011;21982;49.804;24.072;2022-11-25T11:21:31;47.03;;;25.02;;
35877;SDS011;21982;49.804;24.072;2022-11-25T11:24:02;48.45;;;22.77;;
35877;SDS011;21982;49.804;24.072;2022-11-25T11:26:46;50.15;;;24.60;;
35877;SDS011;21982;49.804;24.072;2022-11-25T11:29:27;38.85;;;22.48;;
35877;SDS011;21982;49.804;24.072;2022-11-25T11:32:00;43.83;;;25.48;;
35877;SDS011;21982;49.804;24.072;2022-11-25T11:45:36;48.83;;;22.98;;
35877;SDS011;21982;49.804;24.072;2022-11-25T11:48:11;47.78;;;22.25;;
35877;SDS011;21982;49.804;24.072;2022-11-25T11:59:58;47.15;;;26.02;;
35877;SDS011;21982;49.804;24.072;2022-11-25T12:02:44;45.47;;;23.88;;
35877;SDS011;21982;49.804;24.072;2022-11-25T12:05:20;49.25;;;25.75;;
35877;SDS011;21982;49.804;24.072;2022-11-25T12:10:19;53.90;;;27.27;;
35877;SDS011;21982;49.804;24.072;2022-11-25T12:13:07;54.75;;;28.40;;
35877;SDS011;21982;49.804;24.072;2022-11-25T12:18:38;50.35;;;27.63;;
35877;SDS011;21982;49.804;24.072;2022-11-25T12:27:56;49.10;;;25.95;;
35877;SDS011;21982;49.804;24.072;2022-11-25T19:48:54;52.05;;;23.13;;
35877;SDS011;21982;49.804;24.072;2022-11-25T19:51:22;48.53;;;22.20;;
35877;SDS011;21982;49.804;24.072;2022-11-25T19:53:56;46.70;;;22.92;;
35877;SDS011;21982;49.804;24.072;2022-11-25T20:35:51;41.90;;;18.93;;
35877;SDS011;21982;49.804;24.072;2022-11-25T20:38:23;50.95;;;22.77;;
35877;SDS011;21982;49.804;24.072;2022-11-25T20:40:52;54.87;;;24.23;;
35877;SDS011;21982;49.804;24.072;2022-11-25T20:45:56;55.07;;;26.30;;
35877;SDS011;21982;49.804;24.072;2022-11-25T20:48:22;52.50;;;26.33;;
35877;SDS011;21982;49.804;24.072;2022-11-25T20:50:49;54.22;;;25.70;;
35877;SDS011;21982;49.804;24.072;2022-11-25T20:53:15;50.70;;;25.95;;
35877;SDS011;21982;49.804;24.072;2022-11-25T20:55:42;51.15;;;24.05;;
35877;SDS011;21982;49.804;24.072;2022-11-25T20:58:15;51.80;;;26.55;;
35877;SDS011;21982;49.804;24.072;2022-11-25T21:00:44;50.65;;;24.73;;
35877;SDS011;21982;49.804;24.072;2022-11-25T21:03:09;50.25;;;23.67;;
35877;SDS011;21982;49.804;24.072;2022-11-25T21:05:36;51.88;;;24.15;;
35877;SDS011;21982;49.804;24.072;2022-11-25T21:08:01;51.40;;;26.58;;
35877;SDS011;21982;49.804;24.072;2022-11-25T21:10:27;49.72;;;24.35;;
35877;SDS011;21982;49.804;24.072;2022-11-25T21:12:54;57.83;;;25.15;;
35877;SDS011;21982;49.804;24.072;2022-11-25T21:15:21;48.08;;;23.27;;
35877;SDS011;21982;49.804;24.072;2022-11-25T21:17:48;57.17;;;25.20;;
35877;SDS011;21982;49.804;24.072;2022-11-25T21:20:15;54.28;;;21.45;;
35877;SDS011;21982;49.804;24.072;2022-11-25T21:22:43;52.17;;;24.90;;
35877;SDS011;21982;49.804;24.072;2022-11-25T21:25:13;55.03;;;23.63;;
35877;SDS011;21982;49.804;24.072;2022-11-25T21:27:41;55.95;;;21.70;;
35877;SDS011;21982;49.804;24.072;2022-11-25T21:30:29;49.60;;;23.58;;
35877;SDS011;21982;49.804;24.072;2022-11-25T21:32:57;52.20;;;21.42;;
35877;SDS011;21982;49.804;24.072;2022-11-25T21:35:27;58.65;;;25.45;;
35877;SDS011;21982;49.804;24.072;2022-11-25T21:37:55;50.90;;;23.88;;
35877;SDS011;21982;49.804;24.072;2022-11-25T21:43:00;53.13;;;24.75;;
35877;SDS011;21982;49.804;24.072;2022-11-25T21:45:27;58.50;;;26.00;;
35877;SDS011;21982;49.804;24.072;2022-11-25T21:47:52;59.33;;;25.50;;
35877;SDS011;21982;49.804;24.072;2022-11-25T21:50:18;54.42;;;25.10;;
35877;SDS011;21982;49.804;24.072;2022-11-25T21:52:44;60.58;;;25.02;;
35877;SDS011;21982;49.804;24.072;2022-11-25T21:55:15;64.35;;;28.05;;
35877;SDS011;21982;49.804;24.072;2022-11-25T21:57:41;50.65;;;25.02;;
35877;SDS011;21982;49.804;24.072;2022-11-25T22:03:01;65.13;;;27.53;;
35877;SDS011;21982;49.804;24.072;2022-11-25T22:05:27;63.53;;;27.83;;
35877;SDS011;21982;49.804;24.072;2022-11-25T22:07:54;66.20;;;29.15;;
35877;SDS011;21982;49.804;24.072;2022-11-25T22:10:20;54.90;;;27.40;;
35877;SDS011;21982;49.804;24.072;2022-11-25T22:12:46;50.38;;;25.80;;
35877;SDS011;21982;49.804;24.072;2022-11-25T22:15:16;48.15;;;25.00;;
35877;SDS011;21982;49.804;24.072;2022-11-25T22:17:43;51.50;;;24.63;;
35877;SDS011;21982;49.804;24.072;2022-11-25T22:20:26;52.55;;;22.27;;
35877;SDS011;21982;49.804;24.072;2022-11-25T22:22:53;53.88;;;25.40;;
35877;SDS011;21982;49.804;24.072;2022-11-25T22:25:19;55.65;;;22.92;;
35877;SDS011;21982;49.804;24.072;2022-11-25T22:27:46;45.10;;;22.17;;
35877;SDS011;21982;49.804;24.072;2022-11-25T22:30:13;38.45;;;20.08;;
35877;SDS011;21982;49.804;24.072;2022-11-25T22:32:41;39.40;;;19.95;;
35877;SDS011;21982;49.804;24.072;2022-11-25T22:35:12;44.80;;;19.73;;
35877;SDS011;21982;49.804;24.072;2022-11-25T22:37:42;46.90;;;21.10;;
35877;SDS011;21982;49.804;24.072;2022-11-25T22:40:08;47.08;;;21.63;;
35877;SDS011;21982;49.804;24.072;2022-11-25T22:42:34;36.47;;;18.52;;
35877;SDS011;21982;49.804;24.072;2022-11-25T22:45:01;42.63;;;21.40;;
35877;SDS011;21982;49.804;24.072;2022-11-25T22:47:43;40.97;;;20.15;;
35877;SDS011;21982;49.804;24.072;2022-11-25T22:50:27;41.85;;;19.45;;
35877;SDS011;21982;49.804;24.072;2022-11-25T22:52:54;39.78;;;17.67;;
35877;SDS011;21982;49.804;24.072;2022-11-25T22:55:21;36.25;;;18.45;;
35877;SDS011;21982;49.804;24.072;2022-11-25T22:57:49;39.72;;;18.83;;
35877;SDS011;21982;49.804;24.072;2022-11-25T23:00:20;42.50;;;18.65;;
35877;SDS011;21982;49.804;24.072;2022-11-25T23:02:48;39.90;;;17.98;;
35877;SDS011;21982;49.804;24.072;2022-11-25T23:05:23;40.47;;;20.65;;
35877;SDS011;21982;49.804;24.072;2022-11-25T23:07:50;43.38;;;19.83;;
35877;SDS011;21982;49.804;24.072;2022-11-25T23:10:17;40.60;;;22.25;;
35877;SDS011;21982;49.804;24.072;2022-11-25T23:12:44;37.55;;;19.92;;
35877;SDS011;21982;49.804;24.072;2022-11-25T23:15:11;42.00;;;20.48;;
35877;SDS011;21982;49.804;24.072;2022-11-25T23:17:46;38.30;;;19.58;;
35877;SDS011;21982;49.804;24.072;2022-11-25T23:20:21;41.80;;;19.20;;
35877;SDS011;21982;49.804;24.072;2022-11-25T23:22:50;39.20;;;21.77;;
35877;SDS011;21982;49.804;24.072;2022-11-25T23:25:17;39.65;;;19.45;;
35877;SDS011;21982;49.804;24.072;2022-11-25T23:27:44;44.67;;;21.00;;
35877;SDS011;21982;49.804;24.072;2022-11-25T23:30:13;36.78;;;20.77;;
35877;SDS011;21982;49.804;24.072;2022-11-25T23:32:41;53.25;;;26.75;;
35877;SDS011;21982;49.804;24.072;2022-11-25T23:35:11;54.25;;;28.40;;
35877;SDS011;21982;49.804;24.072;2022-11-25T23:37:38;46.92;;;27.05;;
35877;SDS011;21982;49.804;24.072;2022-11-25T23:40:04;48.63;;;26.05;;
35877;SDS011;21982;49.804;24.072;2022-11-25T23:42:30;56.10;;;30.25;;
35877;SDS011;21982;49.804;24.072;2022-11-25T23:44:56;54.97;;;28.50;;
35877;SDS011;21982;49.804;24.072;2022-11-25T23:47:21;50.30;;;25.88;;
35877;SDS011;21982;49.804;24.072;2022-11-25T23:49:48;61.35;;;26.83;;
35877;SDS011;21982;49.804;24.072;2022-11-25T23:52:17;52.60;;;25.35;;
35877;SDS011;21982;49.804;24.072;2022-11-25T23:54:46;53.35;;;27.17;;
35877;SDS011;21982;49.804;24.072;2022-11-25T23:57:22;49.00;;;24.60;;
35877;SDS011;21982;49.804;24.072;2022-11-25T23:59:50;69.85;;;33.42;;
